createdAt,value
2022-08-09T00:00:04.365Z,2.20
2022-08-09T00:02:43.060Z,1.88
2022-08-09T00:06:15.396Z,1.70
2022-08-09T00:08:09.937Z,2.00
2022-08-09T00:10:39.902Z,1.90
2022-08-09T00:13:17.157Z,2.03
2022-08-09T00:16:00.083Z,1.77
2022-08-09T00:18:35.621Z,2.10
2022-08-09T00:21:05.394Z,1.77
2022-08-09T00:23:56.446Z,1.77
2022-08-09T00:26:32.497Z,1.58
2022-08-09T00:29:03.021Z,1.95
2022-08-09T00:31:58.400Z,1.98
2022-08-09T00:34:20.734Z,2.08
2022-08-09T00:36:49.287Z,1.92
2022-08-09T00:40:12.293Z,1.90
2022-08-09T00:44:19.392Z,2.10
2022-08-09T00:44:53.931Z,1.92
2022-08-09T00:47:24.947Z,2.03
2022-08-09T00:49:56.857Z,1.85
2022-08-09T00:52:30.640Z,2.15
2022-08-09T00:55:02.087Z,2.65
2022-08-09T00:57:33.800Z,1.92
2022-08-09T01:00:21.540Z,2.22
2022-08-09T01:02:58.025Z,2.70
2022-08-09T01:05:54.601Z,2.15
2022-08-09T01:08:49.700Z,1.95
2022-08-09T01:11:53.214Z,1.85
2022-08-09T01:14:40.097Z,2.47
2022-08-09T01:17:19.461Z,2.03
2022-08-09T01:20:02.572Z,1.90
2022-08-09T01:22:54.840Z,1.55
2022-08-09T01:26:00.243Z,2.00
2022-08-09T01:28:30.673Z,1.77
2022-08-09T01:31:01.871Z,1.73
2022-08-09T01:33:40.621Z,2.00
2022-08-09T01:36:15.116Z,1.50
2022-08-09T01:38:47.969Z,1.88
2022-08-09T01:41:18.404Z,1.90
2022-08-09T01:43:59.254Z,1.95
2022-08-09T01:46:38.591Z,2.50
2022-08-09T01:49:14.561Z,2.00
2022-08-09T01:52:14.549Z,1.73
2022-08-09T01:54:50.760Z,1.83
2022-08-09T01:57:23.258Z,1.88
2022-08-09T01:59:59.871Z,1.90
2022-08-09T02:02:32.675Z,1.58
2022-08-09T02:05:15.431Z,2.55
2022-08-09T02:08:39.746Z,2.00
2022-08-09T02:10:55.474Z,1.88
2022-08-09T02:13:26.076Z,1.75
2022-08-09T02:16:07.679Z,1.67
2022-08-09T02:18:38.152Z,1.73
2022-08-09T02:21:17.231Z,2.25
2022-08-09T02:23:56.576Z,2.13
2022-08-09T02:26:28.244Z,2.00
2022-08-09T02:29:00.354Z,1.80
2022-08-09T02:31:34.170Z,1.80
2022-08-09T02:34:40.835Z,1.77
2022-08-09T02:37:14.431Z,1.63
2022-08-09T02:39:50.003Z,1.65
2022-08-09T02:42:28.065Z,1.77
2022-08-09T02:45:03.244Z,1.77
2022-08-09T02:47:46.456Z,2.03
2022-08-09T02:50:29.108Z,1.80
2022-08-09T02:53:02.582Z,1.58
2022-08-09T02:55:46.514Z,1.63
2022-08-09T02:58:35.867Z,1.63
2022-08-09T03:01:10.827Z,2.00
2022-08-09T03:04:17.449Z,1.90
2022-08-09T03:06:34.298Z,1.90
2022-08-09T03:09:05.071Z,1.63
2022-08-09T03:12:05.921Z,1.67
2022-08-09T03:14:28.169Z,1.77
2022-08-09T03:16:58.391Z,1.52
2022-08-09T03:19:59.138Z,2.20
2022-08-09T03:22:25.207Z,1.70
2022-08-09T03:25:21.754Z,1.95
2022-08-09T03:27:55.134Z,1.33
2022-08-09T03:30:29.861Z,1.80
2022-08-09T03:33:17.701Z,1.75
2022-08-09T03:36:14.056Z,2.75
2022-08-09T03:38:44.560Z,1.67
2022-08-09T03:41:15.270Z,1.50
2022-08-09T03:44:03.148Z,1.95
2022-08-09T03:46:33.255Z,2.67
2022-08-09T03:49:04.110Z,1.90
2022-08-09T03:51:55.923Z,2.20
2022-08-09T03:54:38.396Z,2.65
2022-08-09T03:57:18.558Z,1.85
2022-08-09T03:59:56.074Z,1.70
2022-08-09T04:02:32.269Z,1.90
2022-08-09T04:05:06.574Z,5.07
2022-08-09T04:07:53.386Z,5.45
2022-08-09T04:10:29.699Z,2.17
2022-08-09T04:13:03.760Z,2.25
2022-08-09T04:15:42.746Z,2.25
2022-08-09T04:18:24.922Z,2.03
2022-08-09T04:20:55.533Z,2.10
2022-08-09T04:23:25.070Z,1.63
2022-08-09T04:25:58.853Z,1.70
2022-08-09T04:28:33.024Z,1.92
2022-08-09T04:33:47.377Z,1.80
2022-08-09T04:36:26.328Z,1.58
2022-08-09T04:38:56.446Z,1.63
2022-08-09T04:41:33.220Z,1.45
2022-08-09T04:44:11.155Z,2.22
2022-08-09T04:46:59.580Z,1.85
2022-08-09T04:49:53.184Z,1.80
2022-08-09T04:52:27.059Z,1.70
2022-08-09T04:54:57.040Z,1.40
2022-08-09T04:57:25.385Z,1.60
2022-08-09T04:59:55.127Z,1.88
2022-08-09T05:02:27.299Z,1.63
2022-08-09T05:04:56.168Z,1.52
2022-08-09T05:07:29.291Z,1.80
2022-08-09T05:12:31.183Z,1.80
2022-08-09T05:15:03.277Z,1.90
2022-08-09T05:18:39.967Z,1.77
2022-08-09T05:20:19.723Z,1.80
2022-08-09T05:23:55.221Z,1.50
2022-08-09T05:25:36.354Z,1.40
2022-08-09T05:28:04.903Z,1.55
2022-08-09T05:30:34.649Z,1.90
2022-08-09T05:33:04.362Z,1.70
2022-08-09T05:35:39.054Z,1.67
2022-08-09T05:38:21.719Z,1.90
2022-08-09T05:40:50.820Z,1.83
2022-08-09T05:43:20.725Z,1.65
2022-08-09T05:45:55.942Z,2.00
2022-08-09T05:48:33.054Z,1.45
2022-08-09T05:51:43.098Z,1.80
2022-08-09T05:53:56.674Z,1.73
2022-08-09T05:56:27.405Z,1.73
2022-08-09T05:58:59.361Z,1.35
2022-08-09T06:01:34.086Z,1.80
2022-08-09T06:04:10.515Z,1.90
2022-08-09T06:06:45.180Z,1.75
2022-08-09T06:09:41.106Z,1.60
2022-08-09T06:12:07.056Z,1.58
2022-08-09T06:14:35.990Z,1.98
2022-08-09T06:17:09.468Z,1.75
2022-08-09T06:19:38.667Z,1.73
2022-08-09T06:22:06.900Z,1.50
2022-08-09T06:24:42.980Z,2.08
2022-08-09T06:27:10.783Z,2.03
2022-08-09T06:29:48.399Z,1.73
2022-08-09T06:32:59.193Z,1.50
2022-08-09T06:35:20.408Z,1.60
2022-08-09T06:37:53.012Z,1.83
2022-08-09T06:40:34.407Z,2.03
2022-08-09T06:43:02.241Z,1.90
2022-08-09T06:46:06.520Z,1.73
2022-08-09T06:48:30.340Z,1.70
2022-08-09T06:51:00.249Z,1.65
2022-08-09T06:53:38.220Z,1.75
2022-08-09T06:56:09.269Z,1.95
2022-08-09T07:00:53.058Z,2.20
2022-08-09T07:01:35.698Z,1.70
2022-08-09T07:04:20.109Z,1.77
2022-08-09T07:06:53.175Z,1.77
2022-08-09T07:09:55.598Z,2.03
2022-08-09T07:12:17.676Z,2.00
2022-08-09T07:14:51.444Z,1.92
2022-08-09T07:17:22.783Z,2.03
2022-08-09T07:19:55.488Z,1.92
2022-08-09T07:22:34.453Z,2.17
2022-08-09T07:25:05.125Z,2.00
2022-08-09T07:27:42.642Z,1.75
2022-08-09T07:30:13.512Z,2.10
2022-08-09T07:32:42.453Z,1.77
2022-08-09T07:35:12.217Z,2.08
2022-08-09T07:37:45.775Z,2.40
2022-08-09T07:40:18.301Z,1.88
2022-08-09T07:42:54.915Z,2.10
2022-08-09T07:45:40.323Z,1.95
2022-08-09T07:48:28.414Z,1.73
2022-08-09T07:51:09.639Z,2.10
2022-08-09T07:54:04.247Z,1.70
2022-08-09T07:56:38.760Z,2.25
2022-08-09T07:59:25.526Z,1.63
2022-08-09T08:02:01.649Z,2.00
2022-08-09T08:04:31.607Z,1.75
2022-08-09T08:07:09.487Z,1.98
2022-08-09T08:10:07.883Z,2.30
2022-08-09T08:12:45.164Z,1.70
2022-08-09T08:15:17.417Z,1.58
2022-08-09T08:17:58.428Z,2.13
2022-08-09T08:20:30.380Z,1.90
2022-08-09T08:23:15.974Z,1.40
2022-08-09T08:25:53.892Z,1.73
2022-08-09T08:28:35.042Z,1.83
2022-08-09T08:31:14.368Z,1.90
2022-08-09T08:33:55.599Z,1.65
2022-08-09T08:36:28.952Z,1.65
2022-08-09T08:38:58.814Z,2.03
2022-08-09T08:41:50.874Z,1.70
2022-08-09T08:44:23.155Z,1.75
2022-08-09T08:47:02.059Z,1.85
2022-08-09T08:49:46.473Z,2.10
2022-08-09T08:52:53.100Z,2.15
2022-08-09T08:55:09.899Z,1.98
2022-08-09T08:57:38.179Z,1.50
2022-08-09T09:00:16.864Z,1.83
2022-08-09T09:02:53.935Z,1.33
2022-08-09T09:05:57.771Z,1.40
2022-08-09T09:08:29.915Z,1.98
2022-08-09T09:11:04.477Z,1.23
2022-08-09T09:13:54.814Z,1.17
2022-08-09T09:16:30.887Z,1.52
2022-08-09T09:22:11.329Z,1.45
2022-08-09T09:26:01.910Z,1.40
2022-08-09T09:28:05.426Z,1.40
2022-08-09T09:30:40.855Z,1.08
2022-08-09T09:33:15.308Z,1.15
2022-08-09T09:36:20.348Z,1.50
2022-08-09T09:38:57.254Z,1.25
2022-08-09T09:41:33.403Z,1.00
2022-08-09T09:44:27.849Z,1.25
2022-08-09T09:47:09.362Z,1.10
2022-08-09T09:50:07.337Z,1.23
2022-08-09T09:52:36.527Z,0.60
2022-08-09T09:55:16.165Z,1.00
2022-08-09T09:58:17.435Z,1.10
2022-08-09T10:00:59.156Z,0.70
2022-08-09T10:03:57.063Z,0.82
2022-08-09T10:06:29.033Z,1.05
2022-08-09T10:09:11.793Z,0.88
2022-08-09T10:12:12.458Z,0.95
2022-08-09T10:14:50.025Z,0.90
2022-08-09T10:17:51.098Z,0.60
2022-08-09T10:20:27.068Z,0.77
2022-08-09T10:23:19.956Z,0.98
2022-08-09T10:26:07.982Z,0.80
2022-08-09T10:28:38.740Z,0.77
2022-08-09T10:34:09.823Z,0.55
2022-08-09T10:36:45.760Z,0.52
2022-08-09T10:39:19.193Z,0.50
2022-08-09T10:41:48.316Z,0.60
2022-08-09T10:44:22.181Z,0.68
2022-08-09T10:48:20.469Z,0.52
2022-08-09T10:50:27.272Z,0.60
2022-08-09T10:53:19.374Z,0.77
2022-08-09T10:55:58.523Z,0.70
2022-08-09T10:58:37.446Z,0.68
2022-08-09T11:03:14.871Z,0.60
2022-08-09T11:04:28.264Z,0.70
2022-08-09T11:07:00.741Z,0.60
2022-08-09T11:09:38.124Z,0.50
2022-08-09T11:12:10.466Z,0.70
2022-08-09T11:14:41.853Z,0.75
2022-08-09T11:17:14.874Z,0.60
2022-08-09T11:20:12.251Z,0.63
2022-08-09T11:22:55.758Z,0.68
2022-08-09T11:25:36.241Z,0.68
2022-08-09T11:28:34.693Z,0.93
2022-08-09T11:31:43.135Z,0.85
2022-08-09T11:34:42.998Z,0.60
2022-08-09T11:37:25.607Z,0.55
2022-08-09T11:40:04.549Z,0.60
2022-08-09T11:42:48.502Z,0.70
2022-08-09T11:45:42.950Z,0.47
2022-08-09T11:52:50.006Z,0.50
2022-08-09T11:53:58.409Z,0.52
2022-08-09T11:56:42.786Z,0.65
2022-08-09T11:59:30.336Z,0.60
2022-08-09T12:02:18.086Z,1.20
2022-08-09T12:04:54.633Z,0.70
2022-08-09T12:07:41.112Z,0.57
2022-08-09T12:10:31.774Z,0.82
2022-08-09T12:13:03.608Z,1.00
2022-08-09T12:15:52.559Z,0.82
2022-08-09T12:18:30.089Z,0.60
2022-08-09T12:21:02.435Z,0.90
2022-08-09T12:23:56.243Z,0.65
2022-08-09T12:26:25.464Z,0.40
2022-08-09T12:29:15.034Z,0.70
2022-08-09T12:32:02.231Z,0.47
2022-08-09T12:34:36.882Z,0.35
2022-08-09T12:40:06.408Z,0.45
2022-08-09T12:42:35.047Z,0.50
2022-08-09T12:45:32.037Z,0.40
2022-08-09T12:47:52.847Z,0.80
2022-08-09T12:50:24.964Z,0.68
2022-08-09T12:53:09.191Z,0.43
2022-08-09T12:56:14.894Z,0.70
2022-08-09T12:58:28.828Z,0.80
2022-08-09T13:00:57.862Z,0.70
2022-08-09T13:03:53.222Z,0.82
2022-08-09T13:06:34.807Z,0.80
2022-08-09T13:09:07.850Z,0.60
2022-08-09T13:11:43.982Z,0.50
2022-08-09T13:14:42.804Z,0.50
2022-08-09T13:17:16.002Z,0.80
2022-08-09T13:20:10.070Z,0.80
2022-08-09T13:23:05.358Z,0.60
2022-08-09T13:25:23.288Z,0.75
2022-08-09T13:27:55.984Z,0.80
2022-08-09T13:30:51.291Z,0.60
2022-08-09T13:33:22.943Z,0.50
2022-08-09T13:36:24.397Z,0.68
2022-08-09T13:38:54.847Z,1.02
2022-08-09T13:41:58.091Z,0.80
2022-08-09T13:44:16.369Z,0.70
2022-08-09T13:47:27.325Z,0.70
2022-08-09T13:49:39.663Z,0.70
2022-08-09T13:52:24.793Z,0.80
2022-08-09T13:54:59.780Z,0.82
2022-08-09T13:57:35.671Z,0.80
2022-08-09T14:00:10.424Z,0.70
2022-08-09T14:02:42.776Z,0.60
2022-08-09T14:05:56.892Z,0.47
2022-08-09T14:08:17.860Z,0.43
2022-08-09T14:10:50.614Z,0.80
2022-08-09T14:14:15.717Z,0.70
2022-08-09T14:16:18.060Z,0.43
2022-08-09T14:18:49.708Z,0.68
2022-08-09T14:21:22.577Z,0.80
2022-08-09T14:23:54.933Z,0.80
2022-08-09T14:26:31.696Z,0.50
2022-08-09T14:30:04.271Z,0.70
2022-08-09T14:31:56.259Z,0.70
2022-08-09T14:34:27.490Z,0.40
2022-08-09T14:37:06.847Z,0.40
2022-08-09T14:39:47.082Z,0.40
2022-08-09T14:42:30.357Z,0.75
2022-08-09T14:46:45.901Z,0.77
2022-08-09T14:48:00.267Z,0.35
2022-08-09T14:50:32.315Z,0.80
2022-08-09T14:53:02.595Z,0.30
2022-08-09T14:55:33.181Z,0.70
2022-08-09T14:58:05.099Z,0.77
2022-08-09T15:00:36.062Z,0.80
2022-08-09T15:03:09.004Z,0.40
2022-08-09T15:05:39.665Z,0.68
2022-08-09T15:08:18.897Z,0.77
2022-08-09T15:11:00.312Z,0.82
2022-08-09T15:13:47.984Z,0.55
2022-08-09T15:16:18.115Z,0.60
2022-08-09T15:18:48.472Z,0.80
2022-08-09T15:22:01.843Z,0.40
2022-08-09T15:24:11.461Z,0.40
2022-08-09T15:26:46.538Z,0.63
2022-08-09T15:30:48.497Z,0.30
2022-08-09T15:32:04.332Z,0.32
2022-08-09T15:34:35.392Z,0.50
2022-08-09T15:37:38.024Z,0.50
2022-08-09T15:40:20.008Z,0.50
2022-08-09T15:42:49.488Z,0.20
2022-08-09T15:45:21.804Z,0.38
2022-08-09T15:48:05.319Z,0.30
2022-08-09T15:50:44.107Z,0.50
2022-08-09T15:53:17.848Z,0.57
2022-08-09T15:58:50.600Z,0.70
2022-08-09T16:01:19.141Z,0.40
2022-08-09T16:03:47.446Z,0.60
2022-08-09T16:06:32.727Z,0.60
2022-08-09T16:09:05.976Z,0.77
2022-08-09T16:11:34.006Z,0.70
2022-08-09T16:14:07.201Z,0.68
2022-08-09T16:16:45.743Z,0.73
2022-08-09T16:19:16.818Z,0.60
2022-08-09T16:21:51.633Z,0.35
2022-08-09T16:24:33.175Z,0.55
2022-08-09T16:27:05.137Z,0.60
2022-08-09T16:29:38.014Z,0.55
2022-08-09T16:32:34.183Z,0.70
2022-08-09T16:35:02.974Z,0.60
2022-08-09T16:37:54.527Z,0.60
2022-08-09T16:40:29.480Z,0.43
2022-08-09T16:43:07.948Z,0.60
2022-08-09T16:45:37.199Z,0.77
2022-08-09T16:48:38.848Z,0.68
2022-08-09T16:51:08.213Z,0.65
2022-08-09T16:54:24.835Z,0.75
2022-08-09T16:56:35.006Z,0.47
2022-08-09T16:59:10.594Z,0.55
2022-08-09T17:01:39.124Z,0.65
2022-08-09T17:04:10.803Z,0.60
2022-08-09T17:08:40.156Z,0.60
2022-08-09T17:09:46.222Z,0.65
2022-08-09T17:12:16.126Z,2.08
2022-08-09T17:14:49.059Z,0.93
2022-08-09T17:17:29.260Z,0.55
2022-08-09T17:20:28.604Z,0.60
2022-08-09T17:22:52.110Z,1.23
2022-08-09T17:25:22.110Z,0.60
2022-08-09T17:28:04.868Z,0.90
2022-08-09T17:30:39.401Z,0.80
2022-08-09T17:33:57.711Z,0.50
2022-08-09T17:36:41.126Z,0.63
2022-08-09T17:39:25.012Z,0.95
2022-08-09T17:42:01.486Z,0.70
2022-08-09T17:44:38.981Z,0.95
2022-08-09T17:47:15.718Z,0.70
2022-08-09T17:49:51.284Z,0.80
2022-08-09T17:52:27.142Z,0.57
2022-08-09T17:54:55.326Z,0.50
2022-08-09T17:58:03.245Z,1.08
2022-08-09T18:00:13.641Z,1.13
2022-08-09T18:02:41.885Z,0.60
2022-08-09T18:05:38.847Z,0.95
2022-08-09T18:08:13.403Z,0.82
2022-08-09T18:10:46.042Z,1.10
2022-08-09T18:13:43.666Z,0.80
2022-08-09T18:16:11.955Z,1.08
2022-08-09T18:18:43.363Z,0.75
2022-08-09T18:21:23.445Z,0.75
2022-08-09T18:24:09.823Z,1.35
2022-08-09T18:26:46.986Z,0.68
2022-08-09T18:30:41.573Z,0.65
2022-08-09T18:32:07.391Z,0.82
2022-08-09T18:34:36.386Z,0.90
2022-08-09T18:37:05.729Z,0.82
2022-08-09T18:39:39.595Z,1.17
2022-08-09T18:42:09.739Z,0.98
2022-08-09T18:44:40.321Z,1.05
2022-08-09T18:47:15.769Z,1.05
2022-08-09T18:49:46.474Z,1.02
2022-08-09T18:52:18.842Z,1.13
2022-08-09T18:54:53.404Z,0.80
2022-08-09T18:57:24.165Z,0.80
2022-08-09T19:00:19.156Z,1.13
2022-08-09T19:02:50.945Z,0.80
2022-08-09T19:05:58.683Z,0.80
2022-08-09T19:08:19.785Z,0.95
2022-08-09T19:10:48.077Z,1.38
2022-08-09T19:13:21.986Z,1.42
2022-08-09T19:15:52.838Z,0.98
2022-08-09T19:18:35.734Z,1.17
2022-08-09T19:21:10.499Z,1.10
2022-08-09T19:24:33.642Z,1.65
2022-08-09T19:26:32.342Z,1.15
2022-08-09T19:29:15.274Z,1.40
2022-08-09T19:31:48.601Z,1.10
2022-08-09T19:34:22.933Z,1.70
2022-08-09T19:36:54.209Z,1.25
2022-08-09T19:39:43.944Z,1.25
2022-08-09T19:42:15.018Z,1.20
2022-08-09T19:44:50.684Z,1.35
2022-08-09T19:47:22.714Z,1.40
2022-08-09T19:50:06.793Z,1.15
2022-08-09T19:52:49.343Z,1.33
2022-08-09T19:55:25.787Z,1.45
2022-08-09T19:58:16.779Z,1.33
2022-08-09T20:00:46.452Z,1.42
2022-08-09T20:04:10.846Z,1.08
2022-08-09T20:06:04.981Z,1.63
2022-08-09T20:08:56.993Z,1.52
2022-08-09T20:11:26.823Z,1.33
2022-08-09T20:13:55.872Z,1.20
2022-08-09T20:16:36.762Z,1.52
2022-08-09T20:19:47.627Z,1.42
2022-08-09T20:22:01.183Z,1.40
2022-08-09T20:24:33.953Z,1.20
2022-08-09T20:27:05.618Z,1.45
2022-08-09T20:29:38.842Z,1.40
2022-08-09T20:32:31.341Z,1.25
2022-08-09T20:34:56.484Z,1.40
2022-08-09T20:37:24.878Z,1.60
2022-08-09T20:40:17.725Z,1.38
2022-08-09T20:42:53.341Z,1.45
2022-08-09T20:45:59.170Z,1.45
2022-08-09T20:48:21.213Z,1.08
2022-08-09T20:50:55.797Z,1.30
2022-08-09T20:53:36.940Z,1.67
2022-08-09T20:56:08.999Z,1.67
2022-08-09T20:58:38.099Z,1.30
2022-08-09T21:01:33.644Z,1.30
2022-08-09T21:04:08.205Z,1.05
2022-08-09T21:06:44.250Z,1.42
2022-08-09T21:09:13.898Z,1.42
2022-08-09T21:14:31.136Z,1.95
2022-08-09T21:17:00.472Z,1.83
2022-08-09T21:20:18.755Z,1.52
2022-08-09T21:22:35.842Z,1.42
2022-08-09T21:25:22.996Z,1.50
2022-08-09T21:27:53.467Z,1.90
2022-08-09T21:30:24.008Z,1.75
2022-08-09T21:32:53.262Z,1.60
2022-08-09T21:35:21.951Z,1.98
2022-08-09T21:37:59.529Z,1.85
2022-08-09T21:40:32.584Z,1.77
2022-08-09T21:43:01.117Z,1.80
2022-08-09T21:45:30.424Z,2.00
2022-08-09T21:47:59.134Z,1.20
2022-08-09T21:50:38.619Z,1.50
2022-08-09T21:53:15.691Z,1.50
2022-08-09T21:55:51.888Z,2.00
2022-08-09T21:58:19.559Z,2.13
2022-08-09T22:00:48.608Z,1.73
2022-08-09T22:03:25.943Z,1.70
2022-08-09T22:05:54.904Z,1.63
2022-08-09T22:08:27.602Z,1.50
2022-08-09T22:11:05.040Z,1.50
2022-08-09T22:13:44.580Z,1.20
2022-08-09T22:16:12.329Z,1.45
2022-08-09T22:18:44.067Z,1.60
2022-08-09T22:21:27.416Z,1.20
2022-08-09T22:24:16.697Z,2.03
2022-08-09T22:26:51.333Z,1.63
2022-08-09T22:29:26.791Z,1.67
2022-08-09T22:32:00.176Z,1.30
2022-08-09T22:34:28.293Z,1.60
2022-08-09T22:36:57.678Z,1.17
2022-08-09T22:39:57.373Z,1.40
2022-08-09T22:42:20.626Z,1.60
2022-08-09T22:45:00.528Z,1.67
2022-08-09T22:48:18.555Z,1.55
2022-08-09T22:50:32.523Z,1.80
2022-08-09T22:53:03.506Z,1.77
2022-08-09T22:56:06.354Z,2.00
2022-08-09T22:58:32.525Z,1.63
2022-08-09T23:01:06.111Z,1.85
2022-08-09T23:04:03.907Z,1.60
2022-08-09T23:06:34.687Z,1.70
2022-08-09T23:09:07.243Z,1.48
2022-08-09T23:11:35.361Z,1.55
2022-08-09T23:14:03.970Z,1.38
2022-08-09T23:16:32.143Z,1.70
2022-08-09T23:19:00.774Z,1.55
2022-08-09T23:21:33.389Z,1.35
2022-08-09T23:24:05.915Z,1.80
2022-08-09T23:26:39.533Z,1.70
2022-08-09T23:29:11.559Z,1.45
2022-08-09T23:31:40.374Z,1.77
2022-08-09T23:34:08.995Z,1.73
2022-08-09T23:36:37.234Z,1.60
2022-08-09T23:39:06.356Z,1.70
2022-08-09T23:41:34.909Z,1.52
2022-08-09T23:44:03.189Z,1.95
2022-08-09T23:46:31.400Z,2.03
2022-08-09T23:49:00.338Z,1.80
2022-08-09T23:51:28.651Z,1.88
2022-08-09T23:54:02.607Z,1.90
2022-08-09T23:56:53.553Z,1.50
2022-08-09T23:59:21.638Z,1.67
